Terminal Aerodrome Forecast
Issued by NWS Brownsville, TX

Home | Current Version | Previous Version | Text Only | Print | Product List | Glossary On
Versions: 1 2 3 4 5 6 7 8 9 10 11 12 13 14 15 16 17 18 19 20 21 22 23 24 25 26 27 28
000
FTUS44 KBRO 011800 CCA
TAFHRL
TAF COR
KHRL 011814Z 0118/0218 18010G15KT P6SM SCT026
      TEMPO 0118/0121 BKN040
     FM020300 15014KT P6SM SCT250
     FM020900 16008KT 5SM BR BKN025
      TEMPO 0210/0214 BKN020
     FM021500 16012KT P6SM BKN030
     FM021700 16012KT P6SM SCT030=

USA.gov is the U.S. government's official web portal to all federal, state and local government web resources and services.